sensor_id;sensor_type;location;lat;lon;timestamp;pressure;altitude;pressure_sealevel;temperature;humidity
19624;BME280;9959;49.798;9.928;2023-03-03T00:00:48;99962.75;;;0.64;74.58
19624;BME280;9959;49.798;9.928;2023-03-03T00:03:21;99951.03;;;0.57;74.75
19624;BME280;9959;49.798;9.928;2023-03-03T00:05:56;99954.94;;;0.63;74.82
19624;BME280;9959;49.798;9.928;2023-03-03T00:08:24;99957.03;;;0.69;74.19
19624;BME280;9959;49.798;9.928;2023-03-03T00:10:59;99964.56;;;0.64;74.09
19624;BME280;9959;49.798;9.928;2023-03-03T00:13:30;99955.94;;;0.52;75.04
19624;BME280;9959;49.798;9.928;2023-03-03T00:16:14;99958.03;;;0.49;75.17
19624;BME280;9959;49.798;9.928;2023-03-03T00:18:45;99963.03;;;0.32;75.61
19624;BME280;9959;49.798;9.928;2023-03-03T00:21:47;99959.13;;;0.56;74.72
19624;BME280;9959;49.798;9.928;2023-03-03T00:24:21;99960.50;;;0.31;75.13
19624;BME280;9959;49.798;9.928;2023-03-03T00:31:53;99967.50;;;0.22;75.66
19624;BME280;9959;49.798;9.928;2023-03-03T00:34:25;99973.47;;;0.15;76.58
19624;BME280;9959;49.798;9.928;2023-03-03T00:36:57;99970.41;;;0.10;76.90
19624;BME280;9959;49.798;9.928;2023-03-03T00:39:35;99964.72;;;0.24;76.27
19624;BME280;9959;49.798;9.928;2023-03-03T00:42:10;99965.81;;;0.21;76.33
19624;BME280;9959;49.798;9.928;2023-03-03T00:44:46;99971.38;;;0.09;77.17
19624;BME280;9959;49.798;9.928;2023-03-03T00:47:31;99969.84;;;0.16;77.15
19624;BME280;9959;49.798;9.928;2023-03-03T00:52:37;99965.38;;;0.07;77.42
19624;BME280;9959;49.798;9.928;2023-03-03T00:55:05;99969.44;;;0.11;77.28
19624;BME280;9959;49.798;9.928;2023-03-03T00:57:33;99987.53;;;-0.04;77.78
19624;BME280;9959;49.798;9.928;2023-03-03T01:00:00;99991.44;;;0.02;77.01
19624;BME280;9959;49.798;9.928;2023-03-03T01:02:26;99991.41;;;-0.08;77.54
19624;BME280;9959;49.798;9.928;2023-03-03T01:04:54;99982.78;;;-0.10;77.80
19624;BME280;9959;49.798;9.928;2023-03-03T01:07:23;99982.59;;;-0.18;78.24
19624;BME280;9959;49.798;9.928;2023-03-03T01:09:51;99986.34;;;-0.21;78.42
19624;BME280;9959;49.798;9.928;2023-03-03T01:12:18;99982.59;;;-0.18;78.49
19624;BME280;9959;49.798;9.928;2023-03-03T01:14:45;99985.66;;;-0.23;78.78
19624;BME280;9959;49.798;9.928;2023-03-03T01:17:11;99986.34;;;-0.30;79.37
19624;BME280;9959;49.798;9.928;2023-03-03T01:19:38;99982.16;;;-0.23;79.21
19624;BME280;9959;49.798;9.928;2023-03-03T01:22:05;99979.38;;;-0.31;79.63
19624;BME280;9959;49.798;9.928;2023-03-03T01:24:32;99977.38;;;-0.39;80.04
19624;BME280;9959;49.798;9.928;2023-03-03T01:26:59;99985.47;;;-0.41;79.71
19624;BME280;9959;49.798;9.928;2023-03-03T01:29:25;99987.56;;;-0.35;79.94
19624;BME280;9959;49.798;9.928;2023-03-03T01:31:52;99984.94;;;-0.35;79.27
19624;BME280;9959;49.798;9.928;2023-03-03T01:34:19;99987.13;;;-0.40;80.14
19624;BME280;9959;49.798;9.928;2023-03-03T01:36:46;99982.94;;;-0.42;80.44
19624;BME280;9959;49.798;9.928;2023-03-03T01:39:13;99981.56;;;-0.37;80.14
19624;BME280;9959;49.798;9.928;2023-03-03T01:41:40;99973.47;;;-0.45;80.73
19624;BME280;9959;49.798;9.928;2023-03-03T01:44:12;99971.47;;;-0.52;80.92
19624;BME280;9959;49.798;9.928;2023-03-03T01:52:35;99960.75;;;-0.51;81.03
19624;BME280;9959;49.798;9.928;2023-03-03T01:55:07;99962.44;;;-0.50;81.10
19624;BME280;9959;49.798;9.928;2023-03-03T01:57:40;99953.66;;;-0.50;81.12
19624;BME280;9959;49.798;9.928;2023-03-03T02:00:09;99955.19;;;-0.48;81.16
19624;BME280;9959;49.798;9.928;2023-03-03T02:02:37;99957.63;;;-0.35;80.48
19624;BME280;9959;49.798;9.928;2023-03-03T02:05:09;99947.91;;;-0.65;81.14
19624;BME280;9959;49.798;9.928;2023-03-03T02:07:37;99951.84;;;-0.59;81.70
19624;BME280;9959;49.798;9.928;2023-03-03T02:10:05;99959.38;;;-0.55;81.00
19624;BME280;9959;49.798;9.928;2023-03-03T02:12:37;99957.25;;;-0.61;81.83
19624;BME280;9959;49.798;9.928;2023-03-03T02:15:17;99955.31;;;-0.59;81.71
19624;BME280;9959;49.798;9.928;2023-03-03T02:17:45;99955.84;;;-0.65;81.93
19624;BME280;9959;49.798;9.928;2023-03-03T02:28:17;99954.91;;;-0.85;82.83
19624;BME280;9959;49.798;9.928;2023-03-03T02:30:44;99961.88;;;-0.84;82.88
19624;BME280;9959;49.798;9.928;2023-03-03T02:33:11;99955.81;;;-0.95;83.54
19624;BME280;9959;49.798;9.928;2023-03-03T02:35:39;99960.50;;;-0.78;82.57
19624;BME280;9959;49.798;9.928;2023-03-03T02:43:18;99958.41;;;-1.05;84.67
19624;BME280;9959;49.798;9.928;2023-03-03T02:45:48;99956.59;;;-1.05;84.79
19624;BME280;9959;49.798;9.928;2023-03-03T02:48:15;99958.16;;;-1.02;84.55
19624;BME280;9959;49.798;9.928;2023-03-03T02:50:41;99964.41;;;-1.03;84.77
19624;BME280;9959;49.798;9.928;2023-03-03T02:53:08;99946.41;;;-1.09;85.17
19624;BME280;9959;49.798;9.928;2023-03-03T02:55:35;99955.38;;;-1.00;84.67
19624;BME280;9959;49.798;9.928;2023-03-03T02:58:02;99953.19;;;-0.95;84.04
19624;BME280;9959;49.798;9.928;2023-03-03T03:00:29;99952.28;;;-1.06;84.14
19624;BME280;9959;49.798;9.928;2023-03-03T03:02:57;99953.50;;;-0.89;83.60
19624;BME280;9959;49.798;9.928;2023-03-03T03:05:24;99950.59;;;-1.07;84.72
19624;BME280;9959;49.798;9.928;2023-03-03T03:07:51;99963.66;;;-1.15;85.07
19624;BME280;9959;49.798;9.928;2023-03-03T03:10:18;99960.47;;;-1.09;84.93
19624;BME280;9959;49.798;9.928;2023-03-03T03:12:45;99972.22;;;-1.02;84.40
19624;BME280;9959;49.798;9.928;2023-03-03T03:15:12;99973.16;;;-1.03;84.59
19624;BME280;9959;49.798;9.928;2023-03-03T03:17:38;99973.44;;;-1.06;84.49
19624;BME280;9959;49.798;9.928;2023-03-03T03:20:05;99965.59;;;-1.17;84.90
19624;BME280;9959;49.798;9.928;2023-03-03T03:22:33;99970.53;;;-1.23;84.99
19624;BME280;9959;49.798;9.928;2023-03-03T03:25:00;99974.28;;;-1.26;85.70
19624;BME280;9959;49.798;9.928;2023-03-03T03:27:27;99972.38;;;-1.35;86.28
19624;BME280;9959;49.798;9.928;2023-03-03T03:29:53;99977.13;;;-1.18;85.59
19624;BME280;9959;49.798;9.928;2023-03-03T03:32:20;99972.72;;;-1.28;86.08
19624;BME280;9959;49.798;9.928;2023-03-03T03:34:47;99977.59;;;-1.13;85.22
19624;BME280;9959;49.798;9.928;2023-03-03T03:37:14;99982.63;;;-1.10;84.96
19624;BME280;9959;49.798;9.928;2023-03-03T03:39:41;99975.44;;;-1.19;85.45
19624;BME280;9959;49.798;9.928;2023-03-03T03:42:08;99975.69;;;-1.22;85.65
19624;BME280;9959;49.798;9.928;2023-03-03T03:44:35;99972.13;;;-1.32;86.36
19624;BME280;9959;49.798;9.928;2023-03-03T03:47:02;99969.97;;;-1.27;86.13
19624;BME280;9959;49.798;9.928;2023-03-03T03:49:29;99966.84;;;-1.32;86.56
19624;BME280;9959;49.798;9.928;2023-03-03T03:51:55;99979.09;;;-1.31;86.07
19624;BME280;9959;49.798;9.928;2023-03-03T03:54:23;99982.97;;;-1.35;86.87
19624;BME280;9959;49.798;9.928;2023-03-03T03:56:50;99977.97;;;-1.38;86.73
19624;BME280;9959;49.798;9.928;2023-03-03T03:59:18;99976.41;;;-1.41;86.94
19624;BME280;9959;49.798;9.928;2023-03-03T04:01:45;99978.38;;;-1.33;86.19
19624;BME280;9959;49.798;9.928;2023-03-03T04:04:13;99984.00;;;-1.47;87.16
19624;BME280;9959;49.798;9.928;2023-03-03T04:06:41;99980.56;;;-1.59;87.83
19624;BME280;9959;49.798;9.928;2023-03-03T04:09:08;99984.38;;;-1.52;87.73
19624;BME280;9959;49.798;9.928;2023-03-03T04:11:35;99980.91;;;-1.52;88.15
19624;BME280;9959;49.798;9.928;2023-03-03T04:14:07;99983.53;;;-1.52;87.74
19624;BME280;9959;49.798;9.928;2023-03-03T04:16:34;99973.94;;;-1.53;87.71
19624;BME280;9959;49.798;9.928;2023-03-03T04:19:01;99984.00;;;-1.47;87.91
19624;BME280;9959;49.798;9.928;2023-03-03T04:21:28;99988.94;;;-1.54;88.51
19624;BME280;9959;49.798;9.928;2023-03-03T04:23:55;99980.91;;;-1.52;88.92
19624;BME280;9959;49.798;9.928;2023-03-03T04:26:22;99975.28;;;-1.59;89.01
19624;BME280;9959;49.798;9.928;2023-03-03T04:28:49;99978.03;;;-1.60;89.06
19624;BME280;9959;49.798;9.928;2023-03-03T04:31:15;99986.88;;;-1.50;88.36
19624;BME280;9959;49.798;9.928;2023-03-03T04:33:42;99982.56;;;-1.51;88.14
19624;BME280;9959;49.798;9.928;2023-03-03T04:36:09;99991.00;;;-1.57;88.20
19624;BME280;9959;49.798;9.928;2023-03-03T04:38:36;99991.50;;;-1.63;88.69
19624;BME280;9959;49.798;9.928;2023-03-03T04:41:03;99995.78;;;-1.51;88.36
19624;BME280;9959;49.798;9.928;2023-03-03T04:43:30;99992.22;;;-1.61;88.56
19624;BME280;9959;49.798;9.928;2023-03-03T04:45:57;99995.78;;;-1.51;88.55
19624;BME280;9959;49.798;9.928;2023-03-03T04:48:24;99992.34;;;-1.63;89.19
19624;BME280;9959;49.798;9.928;2023-03-03T04:50:51;99998.56;;;-1.64;89.65
19624;BME280;9959;49.798;9.928;2023-03-03T04:53:17;100005.47;;;-1.73;90.14
19624;BME280;9959;49.798;9.928;2023-03-03T04:55:44;100001.38;;;-1.65;90.13
19624;BME280;9959;49.798;9.928;2023-03-03T04:58:11;100007.50;;;-1.65;89.98
19624;BME280;9959;49.798;9.928;2023-03-03T05:00:38;100008.81;;;-1.71;90.41
19624;BME280;9959;49.798;9.928;2023-03-03T05:03:05;100004.00;;;-1.65;90.19
19624;BME280;9959;49.798;9.928;2023-03-03T05:05:32;100009.06;;;-1.74;90.55
19624;BME280;9959;49.798;9.928;2023-03-03T05:07:59;100008.34;;;-1.76;90.92
19624;BME280;9959;49.798;9.928;2023-03-03T05:10:26;100013.63;;;-1.76;91.26
19624;BME280;9959;49.798;9.928;2023-03-03T05:12:53;100015.69;;;-1.79;91.43
19624;BME280;9959;49.798;9.928;2023-03-03T05:15:20;100011.38;;;-1.80;91.69
19624;BME280;9959;49.798;9.928;2023-03-03T05:17:46;100016.78;;;-1.82;91.80
19624;BME280;9959;49.798;9.928;2023-03-03T05:20:13;100011.84;;;-1.75;91.25
19624;BME280;9959;49.798;9.928;2023-03-03T05:22:40;100006.31;;;-1.72;91.20
19624;BME280;9959;49.798;9.928;2023-03-03T05:25:07;100010.03;;;-1.75;90.99
19624;BME280;9959;49.798;9.928;2023-03-03T05:27:36;100012.56;;;-1.84;91.89
19624;BME280;9959;49.798;9.928;2023-03-03T05:30:03;100011.25;;;-1.79;91.79
19624;BME280;9959;49.798;9.928;2023-03-03T05:32:30;100018.78;;;-1.74;91.43
19624;BME280;9959;49.798;9.928;2023-03-03T05:34:57;100012.91;;;-1.78;91.20
19624;BME280;9959;49.798;9.928;2023-03-03T05:37:24;100011.25;;;-1.79;91.16
19624;BME280;9959;49.798;9.928;2023-03-03T05:39:51;100011.50;;;-1.82;91.63
19624;BME280;9959;49.798;9.928;2023-03-03T05:42:18;100023.72;;;-1.81;91.55
19624;BME280;9959;49.798;9.928;2023-03-03T05:44:45;100022.09;;;-1.93;92.54
19624;BME280;9959;49.798;9.928;2023-03-03T05:47:12;100019.41;;;-1.82;92.55
19624;BME280;9959;49.798;9.928;2023-03-03T05:49:39;100022.03;;;-1.71;91.36
19624;BME280;9959;49.798;9.928;2023-03-03T05:52:06;100032.25;;;-1.77;91.50
19624;BME280;9959;49.798;9.928;2023-03-03T05:54:34;100031.41;;;-1.78;91.41
19624;BME280;9959;49.798;9.928;2023-03-03T05:57:01;100033.94;;;-1.87;91.95
19624;BME280;9959;49.798;9.928;2023-03-03T05:59:28;100034.75;;;-1.76;91.80
19624;BME280;9959;49.798;9.928;2023-03-03T06:01:55;100030.34;;;-1.86;92.13
19624;BME280;9959;49.798;9.928;2023-03-03T06:04:22;100039.22;;;-1.87;92.51
19624;BME280;9959;49.798;9.928;2023-03-03T06:06:49;100033.94;;;-1.87;92.69
19624;BME280;9959;49.798;9.928;2023-03-03T06:09:16;100032.63;;;-1.82;92.47
19624;BME280;9959;49.798;9.928;2023-03-03T06:11:45;100044.25;;;-1.73;92.05
19624;BME280;9959;49.798;9.928;2023-03-03T06:14:12;100046.03;;;-1.74;91.79
19624;BME280;9959;49.798;9.928;2023-03-03T06:16:39;100049.16;;;-1.68;91.46
19624;BME280;9959;49.798;9.928;2023-03-03T06:19:06;100049.28;;;-1.70;91.09
19624;BME280;9959;49.798;9.928;2023-03-03T06:21:33;100047.97;;;-1.76;91.63
19624;BME280;9959;49.798;9.928;2023-03-03T06:24:00;100047.47;;;-1.69;91.34
19624;BME280;9959;49.798;9.928;2023-03-03T06:26:26;100049.16;;;-1.68;91.03
19624;BME280;9959;49.798;9.928;2023-03-03T06:28:53;100059.97;;;-1.72;91.34
19624;BME280;9959;49.798;9.928;2023-03-03T06:31:22;100056.59;;;-1.74;91.93
19624;BME280;9959;49.798;9.928;2023-03-03T06:33:49;100065.50;;;-1.75;92.31
19624;BME280;9959;49.798;9.928;2023-03-03T06:36:18;100067.41;;;-1.65;91.44
19624;BME280;9959;49.798;9.928;2023-03-03T06:38:45;100074.06;;;-1.50;90.97
19624;BME280;9959;49.798;9.928;2023-03-03T06:41:12;100070.97;;;-1.55;89.93
19624;BME280;9959;49.798;9.928;2023-03-03T06:43:39;100075.63;;;-1.48;90.16
19624;BME280;9959;49.798;9.928;2023-03-03T06:46:06;100087.28;;;-1.50;90.80
19624;BME280;9959;49.798;9.928;2023-03-03T06:48:32;100084.88;;;-1.53;90.53
19624;BME280;9959;49.798;9.928;2023-03-03T06:51:01;100082.47;;;-1.45;90.11
19624;BME280;9959;49.798;9.928;2023-03-03T06:53:30;100094.22;;;-1.38;89.82
19624;BME280;9959;49.798;9.928;2023-03-03T06:55:59;100095.63;;;-1.34;89.40
19624;BME280;9959;49.798;9.928;2023-03-03T06:58:27;100091.53;;;-1.27;89.49
19624;BME280;9959;49.798;9.928;2023-03-03T07:01:00;100094.88;;;-1.14;88.83
19624;BME280;9959;49.798;9.928;2023-03-03T07:03:32;100100.34;;;-1.06;88.54
19624;BME280;9959;49.798;9.928;2023-03-03T07:06:00;100110.06;;;-1.06;87.87
19624;BME280;9959;49.798;9.928;2023-03-03T07:08:31;100112.59;;;-1.05;87.68
19624;BME280;9959;49.798;9.928;2023-03-03T07:11:04;100105.97;;;-0.99;87.31
19624;BME280;9959;49.798;9.928;2023-03-03T07:13:43;100105.13;;;-0.99;86.81
19624;BME280;9959;49.798;9.928;2023-03-03T07:16:13;100118.72;;;-1.04;87.37
19624;BME280;9959;49.798;9.928;2023-03-03T07:21:25;100119.91;;;-0.97;86.81
19624;BME280;9959;49.798;9.928;2023-03-03T07:23:57;100126.19;;;-0.77;86.36
19624;BME280;9959;49.798;9.928;2023-03-03T07:26:30;100139.88;;;-0.72;86.17
19624;BME280;9959;49.798;9.928;2023-03-03T07:29:26;100142.72;;;-0.64;86.05
19624;BME280;9959;49.798;9.928;2023-03-03T07:31:56;100140.53;;;-0.59;85.74
19624;BME280;9959;49.798;9.928;2023-03-03T07:34:39;100140.00;;;-0.53;85.76
19624;BME280;9959;49.798;9.928;2023-03-03T07:37:16;100142.13;;;-0.47;85.61
19624;BME280;9959;49.798;9.928;2023-03-03T07:39:46;100137.66;;;-0.25;84.74
19624;BME280;9959;49.798;9.928;2023-03-03T07:42:27;100148.78;;;-0.31;85.36
19624;BME280;9959;49.798;9.928;2023-03-03T07:44:59;100144.75;;;-0.05;84.42
19624;BME280;9959;49.798;9.928;2023-03-03T07:47:30;100150.50;;;0.00;83.58
19624;BME280;9959;49.798;9.928;2023-03-03T07:50:28;100160.41;;;0.08;83.27
19624;BME280;9959;49.798;9.928;2023-03-03T07:53:00;100160.06;;;0.22;82.68
19624;BME280;9959;49.798;9.928;2023-03-03T07:57:54;100171.94;;;0.27;82.59
19624;BME280;9959;49.798;9.928;2023-03-03T08:03:18;100175.38;;;0.58;82.01
19624;BME280;9959;49.798;9.928;2023-03-03T08:05:47;100168.72;;;0.64;82.32
19624;BME280;9959;49.798;9.928;2023-03-03T08:08:41;100172.84;;;0.97;80.21
19624;BME280;9959;49.798;9.928;2023-03-03T08:11:10;100177.47;;;1.05;79.91
19624;BME280;9959;49.798;9.928;2023-03-03T08:13:39;100186.41;;;1.04;79.73
19624;BME280;9959;49.798;9.928;2023-03-03T08:18:48;100179.97;;;1.25;78.91
19624;BME280;9959;49.798;9.928;2023-03-03T08:21:23;100171.47;;;1.31;79.17
19624;BME280;9959;49.798;9.928;2023-03-03T08:23:53;100175.19;;;1.77;77.29
19624;BME280;9959;49.798;9.928;2023-03-03T08:26:21;100175.06;;;2.25;75.73
19624;BME280;9959;49.798;9.928;2023-03-03T08:28:49;100174.22;;;2.52;75.15
19624;BME280;9959;49.798;9.928;2023-03-03T08:31:16;100181.88;;;2.65;74.36
19624;BME280;9959;49.798;9.928;2023-03-03T08:34:03;100175.06;;;2.80;73.43
19624;BME280;9959;49.798;9.928;2023-03-03T08:36:30;100166.88;;;2.91;73.51
19624;BME280;9959;49.798;9.928;2023-03-03T08:39:00;100160.97;;;2.97;73.33
19624;BME280;9959;49.798;9.928;2023-03-03T08:41:26;100168.72;;;3.09;72.86
19624;BME280;9959;49.798;9.928;2023-03-03T08:43:53;100173.97;;;3.36;71.55
19624;BME280;9959;49.798;9.928;2023-03-03T08:46:21;100163.09;;;3.47;71.33
19624;BME280;9959;49.798;9.928;2023-03-03T08:48:48;100158.50;;;3.57;70.69
19624;BME280;9959;49.798;9.928;2023-03-03T08:51:15;100169.94;;;3.50;71.02
19624;BME280;9959;49.798;9.928;2023-03-03T08:53:42;100168.44;;;3.47;70.96
19624;BME280;9959;49.798;9.928;2023-03-03T08:56:09;100164.00;;;3.38;71.21
19624;BME280;9959;49.798;9.928;2023-03-03T08:58:36;100168.72;;;3.44;70.82
19624;BME280;9959;49.798;9.928;2023-03-03T09:01:03;100175.56;;;3.64;69.89
19624;BME280;9959;49.798;9.928;2023-03-03T09:03:30;100174.75;;;3.90;69.11
19624;BME280;9959;49.798;9.928;2023-03-03T09:05:57;100172.75;;;3.92;69.37
19624;BME280;9959;49.798;9.928;2023-03-03T09:08:24;100174.44;;;4.19;67.63
19624;BME280;9959;49.798;9.928;2023-03-03T09:10:51;100174.72;;;4.41;67.50
19624;BME280;9959;49.798;9.928;2023-03-03T09:13:19;100180.91;;;4.16;67.64
19624;BME280;9959;49.798;9.928;2023-03-03T09:15:46;100185.31;;;4.67;66.61
19624;BME280;9959;49.798;9.928;2023-03-03T09:18:21;100190.81;;;4.66;65.91
19624;BME280;9959;49.798;9.928;2023-03-03T09:20:52;100189.56;;;4.44;66.56
19624;BME280;9959;49.798;9.928;2023-03-03T09:25:50;100188.97;;;4.24;68.04
19624;BME280;9959;49.798;9.928;2023-03-03T09:28:28;100180.63;;;4.53;66.44
19624;BME280;9959;49.798;9.928;2023-03-03T09:31:01;100186.66;;;5.14;63.51
19624;BME280;9959;49.798;9.928;2023-03-03T09:33:43;100182.69;;;5.34;63.16
19624;BME280;9959;49.798;9.928;2023-03-03T09:36:29;100188.19;;;4.74;64.64
19624;BME280;9959;49.798;9.928;2023-03-03T09:39:21;100189.91;;;4.83;64.58
19624;BME280;9959;49.798;9.928;2023-03-03T09:58:22;100186.41;;;5.73;60.75
19624;BME280;9959;49.798;9.928;2023-03-03T10:06:26;100174.03;;;5.72;61.43
19624;BME280;9959;49.798;9.928;2023-03-03T10:09:04;100184.41;;;6.00;60.25
19624;BME280;9959;49.798;9.928;2023-03-03T10:11:39;100183.09;;;6.51;59.52
19624;BME280;9959;49.798;9.928;2023-03-03T10:22:19;100179.78;;;6.49;59.15
19624;BME280;9959;49.798;9.928;2023-03-03T10:27:38;100182.16;;;6.83;58.18
19624;BME280;9959;49.798;9.928;2023-03-03T10:30:21;100184.84;;;6.75;57.98
19624;BME280;9959;49.798;9.928;2023-03-03T10:36:33;100187.94;;;7.26;56.14
19624;BME280;9959;49.798;9.928;2023-03-03T10:50:26;100195.41;;;7.99;53.40
19624;BME280;9959;49.798;9.928;2023-03-03T10:55:49;100187.88;;;7.79;53.60
19624;BME280;9959;49.798;9.928;2023-03-03T10:58:48;100185.00;;;8.19;52.93
19624;BME280;9959;49.798;9.928;2023-03-03T11:01:48;100197.06;;;8.37;52.32
19624;BME280;9959;49.798;9.928;2023-03-03T11:17:46;100174.63;;;8.89;50.99
19624;BME280;9959;49.798;9.928;2023-03-03T11:20:34;100172.56;;;9.91;49.49
19624;BME280;9959;49.798;9.928;2023-03-03T11:23:16;100173.75;;;9.39;49.15
19624;BME280;9959;49.798;9.928;2023-03-03T11:28:46;100169.59;;;9.37;49.73
19624;BME280;9959;49.798;9.928;2023-03-03T11:34:06;100161.28;;;8.81;50.18
19624;BME280;9959;49.798;9.928;2023-03-03T11:39:22;100154.25;;;10.29;46.54
19624;BME280;9959;49.798;9.928;2023-03-03T11:42:05;100147.50;;;10.12;46.18
19624;BME280;9959;49.798;9.928;2023-03-03T11:44:48;100146.84;;;10.38;44.82
19624;BME280;9959;49.798;9.928;2023-03-03T11:50:04;100139.38;;;11.42;43.34
19624;BME280;9959;49.798;9.928;2023-03-03T11:55:20;100122.97;;;12.16;41.10
19624;BME280;9959;49.798;9.928;2023-03-03T12:03:28;100121.41;;;14.42;37.12
19624;BME280;9959;49.798;9.928;2023-03-03T12:20:09;100087.16;;;16.14;33.51
19624;BME280;9959;49.798;9.928;2023-03-03T12:28:27;100072.88;;;17.27;31.46
19624;BME280;9959;49.798;9.928;2023-03-03T12:31:15;100069.28;;;16.93;31.68
19624;BME280;9959;49.798;9.928;2023-03-03T12:39:24;100056.84;;;14.69;34.92
19624;BME280;9959;49.798;9.928;2023-03-03T13:23:26;100014.63;;;17.62;28.89
19624;BME280;9959;49.798;9.928;2023-03-03T13:31:20;100018.03;;;18.46;27.80
19624;BME280;9959;49.798;9.928;2023-03-03T13:36:47;100017.50;;;18.49;27.50
19624;BME280;9959;49.798;9.928;2023-03-03T13:39:22;100015.00;;;17.65;29.22
19624;BME280;9959;49.798;9.928;2023-03-03T13:42:15;100007.50;;;17.72;28.99
19624;BME280;9959;49.798;9.928;2023-03-03T13:44:48;100012.75;;;16.43;30.52
19624;BME280;9959;49.798;9.928;2023-03-03T14:01:13;100001.03;;;17.45;29.75
19624;BME280;9959;49.798;9.928;2023-03-03T14:06:21;99993.19;;;17.48;29.74
19624;BME280;9959;49.798;9.928;2023-03-03T14:14:32;99996.06;;;16.11;30.81
19624;BME280;9959;49.798;9.928;2023-03-03T14:17:06;99989.69;;;15.94;30.99
19624;BME280;9959;49.798;9.928;2023-03-03T14:22:25;99979.63;;;17.53;28.73
19624;BME280;9959;49.798;9.928;2023-03-03T14:35:19;99979.94;;;15.81;30.83
19624;BME280;9959;49.798;9.928;2023-03-03T14:37:49;99983.44;;;15.94;30.41
19624;BME280;9959;49.798;9.928;2023-03-03T14:40:19;99977.00;;;16.63;29.17
19624;BME280;9959;49.798;9.928;2023-03-03T14:45:28;99982.25;;;16.13;27.90
19624;BME280;9959;49.798;9.928;2023-03-03T14:47:58;99980.94;;;15.34;29.54
19624;BME280;9959;49.798;9.928;2023-03-03T14:50:37;99980.47;;;14.42;32.38
19624;BME280;9959;49.798;9.928;2023-03-03T14:53:10;99976.75;;;14.96;31.75
19624;BME280;9959;49.798;9.928;2023-03-03T14:55:40;99976.41;;;14.63;32.47
19624;BME280;9959;49.798;9.928;2023-03-03T14:58:24;99969.91;;;15.05;31.63
19624;BME280;9959;49.798;9.928;2023-03-03T15:01:14;99971.25;;;13.27;34.75
19624;BME280;9959;49.798;9.928;2023-03-03T15:09:31;99969.63;;;15.60;30.92
19624;BME280;9959;49.798;9.928;2023-03-03T15:12:34;99972.31;;;15.37;31.34
19624;BME280;9959;49.798;9.928;2023-03-03T15:20:41;99972.06;;;16.48;30.13
19624;BME280;9959;49.798;9.928;2023-03-03T15:23:33;99972.22;;;15.43;31.45
19624;BME280;9959;49.798;9.928;2023-03-03T15:29:21;99974.34;;;15.41;31.78
19624;BME280;9959;49.798;9.928;2023-03-03T15:37:17;99966.41;;;15.16;32.51
19624;BME280;9959;49.798;9.928;2023-03-03T16:03:32;99967.84;;;11.99;39.72
19624;BME280;9959;49.798;9.928;2023-03-03T16:06:09;99974.50;;;11.96;39.53
19624;BME280;9959;49.798;9.928;2023-03-03T16:11:25;99971.91;;;11.43;40.17
19624;BME280;9959;49.798;9.928;2023-03-03T16:14:12;99967.53;;;11.03;41.31
19624;BME280;9959;49.798;9.928;2023-03-03T16:22:36;99972.47;;;10.60;41.97
19624;BME280;9959;49.798;9.928;2023-03-03T16:30:30;99970.53;;;10.34;42.74
19624;BME280;9959;49.798;9.928;2023-03-03T16:38:34;99987.75;;;9.08;46.12
19624;BME280;9959;49.798;9.928;2023-03-03T16:41:09;99989.31;;;8.96;46.21
19624;BME280;9959;49.798;9.928;2023-03-03T16:52:10;100005.63;;;8.37;47.92
19624;BME280;9959;49.798;9.928;2023-03-03T17:08:32;100030.16;;;7.60;50.23
19624;BME280;9959;49.798;9.928;2023-03-03T17:11:04;100034.88;;;7.58;50.34
19624;BME280;9959;49.798;9.928;2023-03-03T17:24:46;100052.03;;;7.11;52.28
19624;BME280;9959;49.798;9.928;2023-03-03T17:32:46;100056.31;;;6.75;54.11
19624;BME280;9959;49.798;9.928;2023-03-03T17:45:40;100078.59;;;6.36;55.13
19624;BME280;9959;49.798;9.928;2023-03-03T17:48:46;100084.66;;;6.30;55.30
19624;BME280;9959;49.798;9.928;2023-03-03T17:51:50;100089.72;;;6.17;55.74
19624;BME280;9959;49.798;9.928;2023-03-03T17:54:43;100101.06;;;6.27;55.00
19624;BME280;9959;49.798;9.928;2023-03-03T17:59:54;100106.81;;;6.08;55.04
19624;BME280;9959;49.798;9.928;2023-03-03T18:05:09;100116.88;;;5.98;54.87
19624;BME280;9959;49.798;9.928;2023-03-03T18:21:08;100123.06;;;5.66;54.04
19624;BME280;9959;49.798;9.928;2023-03-03T18:23:41;100124.72;;;5.51;54.68
19624;BME280;9959;49.798;9.928;2023-03-03T18:26:33;100127.56;;;5.49;55.66
19624;BME280;9959;49.798;9.928;2023-03-03T18:29:19;100128.25;;;5.19;56.58
19624;BME280;9959;49.798;9.928;2023-03-03T18:39:41;100139.88;;;4.85;58.94
19624;BME280;9959;49.798;9.928;2023-03-03T18:44:44;100140.13;;;4.66;60.36
19624;BME280;9959;49.798;9.928;2023-03-03T18:47:13;100141.44;;;4.54;60.87
19624;BME280;9959;49.798;9.928;2023-03-03T18:52:25;100139.34;;;4.39;61.00
19624;BME280;9959;49.798;9.928;2023-03-03T18:57:37;100151.69;;;4.32;61.41
19624;BME280;9959;49.798;9.928;2023-03-03T19:00:15;100156.97;;;4.24;61.47
19624;BME280;9959;49.798;9.928;2023-03-03T19:05:48;100162.25;;;4.16;61.83
19624;BME280;9959;49.798;9.928;2023-03-03T19:08:21;100170.91;;;4.10;62.44
19624;BME280;9959;49.798;9.928;2023-03-03T19:16:05;100165.66;;;3.74;63.90
19624;BME280;9959;49.798;9.928;2023-03-03T19:18:34;100168.03;;;3.86;64.00
19624;BME280;9959;49.798;9.928;2023-03-03T19:21:40;100176.09;;;3.68;64.54
19624;BME280;9959;49.798;9.928;2023-03-03T19:24:32;100177.75;;;3.69;64.64
19624;BME280;9959;49.798;9.928;2023-03-03T19:32:26;100181.06;;;3.45;65.49
19624;BME280;9959;49.798;9.928;2023-03-03T19:35:19;100173.00;;;3.37;66.04
19624;BME280;9959;49.798;9.928;2023-03-03T19:38:10;100184.72;;;3.44;65.91
19624;BME280;9959;49.798;9.928;2023-03-03T19:52:14;100187.28;;;3.00;67.63
19624;BME280;9959;49.798;9.928;2023-03-03T19:57:30;100191.22;;;2.96;68.52
19624;BME280;9959;49.798;9.928;2023-03-03T20:00:08;100197.97;;;2.91;68.54
19624;BME280;9959;49.798;9.928;2023-03-03T20:05:47;100206.81;;;2.91;68.39
19624;BME280;9959;49.798;9.928;2023-03-03T20:11:14;100206.38;;;2.68;69.57
19624;BME280;9959;49.798;9.928;2023-03-03T20:22:16;100224.72;;;2.62;69.84
19624;BME280;9959;49.798;9.928;2023-03-03T20:27:43;100234.84;;;2.49;70.39
19624;BME280;9959;49.798;9.928;2023-03-03T20:30:43;100237.16;;;2.34;71.26
19624;BME280;9959;49.798;9.928;2023-03-03T20:33:32;100230.59;;;2.28;71.48
19624;BME280;9959;49.798;9.928;2023-03-03T20:47:37;100242.25;;;2.08;72.54
19624;BME280;9959;49.798;9.928;2023-03-03T21:03:09;100235.88;;;1.62;74.44
19624;BME280;9959;49.798;9.928;2023-03-03T21:08:18;100242.72;;;1.55;74.97
19624;BME280;9959;49.798;9.928;2023-03-03T21:16:30;100241.72;;;1.37;75.86